createdAt,value
2024-01-16T00:01:03.888Z,10.15
2024-01-16T00:03:31.782Z,11.00
2024-01-16T00:06:00.997Z,7.35
2024-01-16T00:08:28.820Z,7.47
2024-01-16T00:10:56.665Z,8.98
2024-01-16T00:13:24.514Z,7.47
2024-01-16T00:15:52.497Z,5.05
2024-01-16T00:18:21.106Z,8.00
2024-01-16T00:20:49.105Z,6.85
2024-01-16T00:23:18.383Z,10.52
2024-01-16T00:25:46.185Z,7.07
2024-01-16T00:28:14.049Z,6.00
2024-01-16T00:30:41.902Z,5.50
2024-01-16T00:33:09.840Z,5.80
2024-01-16T00:35:37.744Z,9.65
2024-01-16T00:38:06.008Z,6.72
2024-01-16T00:40:35.383Z,9.93
2024-01-16T00:43:03.369Z,7.63
2024-01-16T00:45:31.459Z,6.95
2024-01-16T00:47:59.506Z,8.43
2024-01-16T00:50:27.907Z,7.18
2024-01-16T00:52:56.107Z,9.35
2024-01-16T00:55:23.977Z,6.68
2024-01-16T00:57:54.996Z,6.20
2024-01-16T01:00:22.921Z,5.90
2024-01-16T01:02:50.844Z,7.47
2024-01-16T01:05:18.751Z,7.07
2024-01-16T01:07:46.857Z,4.30
2024-01-16T01:10:15.063Z,8.27
2024-01-16T01:12:42.993Z,10.10
2024-01-16T01:15:13.146Z,6.13
2024-01-16T01:17:41.266Z,9.60
2024-01-16T01:20:13.300Z,8.43
2024-01-16T01:22:41.516Z,8.80
2024-01-16T01:25:11.730Z,8.63
2024-01-16T01:27:39.613Z,7.85
2024-01-16T01:30:09.678Z,6.97
2024-01-16T01:32:39.300Z,12.93
2024-01-16T01:35:08.140Z,8.75
2024-01-16T01:37:36.058Z,7.95
2024-01-16T01:40:04.031Z,7.43
2024-01-16T01:42:31.891Z,5.72
2024-01-16T01:44:59.916Z,6.35
2024-01-16T01:47:28.130Z,6.57
2024-01-16T01:49:57.383Z,6.13
2024-01-16T01:52:25.801Z,7.40
2024-01-16T01:54:54.310Z,6.93
2024-01-16T01:57:22.238Z,6.95
2024-01-16T01:59:50.312Z,9.07
2024-01-16T02:02:21.090Z,3.75
2024-01-16T02:04:49.446Z,5.57
2024-01-16T02:07:19.089Z,9.75
2024-01-16T02:09:47.046Z,6.03
2024-01-16T02:12:15.023Z,5.80
2024-01-16T02:14:43.073Z,2.63
2024-01-16T02:17:11.608Z,3.90
2024-01-16T02:19:39.500Z,5.68
2024-01-16T02:22:11.631Z,4.90
2024-01-16T02:24:40.861Z,9.18
2024-01-16T02:27:09.271Z,5.95
2024-01-16T02:29:42.967Z,7.90
2024-01-16T02:32:13.971Z,4.40
2024-01-16T02:34:42.325Z,5.82
2024-01-16T02:37:10.349Z,7.95
2024-01-16T02:39:38.235Z,8.10
2024-01-16T02:42:07.895Z,6.28
2024-01-16T02:44:35.843Z,5.22
2024-01-16T02:47:03.819Z,7.10
2024-01-16T02:49:33.950Z,7.22
2024-01-16T02:52:01.868Z,8.27
2024-01-16T02:54:29.903Z,6.20
2024-01-16T02:56:57.726Z,6.28
2024-01-16T02:59:29.345Z,4.63
2024-01-16T03:01:58.007Z,5.30
2024-01-16T03:04:26.199Z,4.93
2024-01-16T03:06:54.116Z,4.47
2024-01-16T03:09:21.925Z,6.25
2024-01-16T03:11:49.891Z,3.72
2024-01-16T03:14:17.821Z,6.63
2024-01-16T03:16:47.097Z,4.90
2024-01-16T03:19:18.048Z,3.80
2024-01-16T03:21:45.888Z,5.18
2024-01-16T03:24:13.735Z,4.55
2024-01-16T03:26:41.886Z,4.22
2024-01-16T03:29:09.798Z,4.35
2024-01-16T03:31:37.660Z,2.97
2024-01-16T03:34:06.897Z,2.15
2024-01-16T03:36:34.745Z,2.85
2024-01-16T03:39:02.569Z,3.63
2024-01-16T03:41:30.665Z,3.40
2024-01-16T03:43:58.539Z,4.43
2024-01-16T03:46:26.414Z,3.40
2024-01-16T03:48:54.443Z,3.95
2024-01-16T03:51:23.677Z,3.58
2024-01-16T03:53:51.589Z,2.53
2024-01-16T03:56:19.461Z,4.10
2024-01-16T03:58:47.322Z,3.95
2024-01-16T04:01:15.205Z,4.60
2024-01-16T04:03:43.238Z,4.00
2024-01-16T04:06:18.413Z,3.83
2024-01-16T04:08:48.101Z,3.65
2024-01-16T04:11:16.673Z,6.85
2024-01-16T04:13:44.606Z,3.00
2024-01-16T04:16:14.534Z,4.50
2024-01-16T04:18:44.140Z,4.00
2024-01-16T04:21:12.388Z,4.85
2024-01-16T04:23:40.384Z,5.30
2024-01-16T04:26:09.946Z,4.25
2024-01-16T04:28:38.928Z,4.45
2024-01-16T04:31:07.226Z,2.13
2024-01-16T04:33:35.215Z,3.05
2024-01-16T04:36:03.267Z,4.70
2024-01-16T04:38:31.119Z,3.33
2024-01-16T04:40:58.940Z,4.72
2024-01-16T04:43:28.125Z,7.03
2024-01-16T04:45:56.094Z,4.88
2024-01-16T04:48:24.049Z,4.90
2024-01-16T04:50:51.917Z,2.40
2024-01-16T04:53:20.127Z,4.57
2024-01-16T04:55:48.035Z,5.53
2024-01-16T04:58:15.836Z,6.47
2024-01-16T05:00:45.208Z,4.43
2024-01-16T05:03:13.088Z,6.35
2024-01-16T05:05:41.164Z,4.25
2024-01-16T05:08:09.213Z,5.05
2024-01-16T05:10:37.078Z,6.20
2024-01-16T05:13:05.330Z,5.30
2024-01-16T05:15:33.135Z,9.27
2024-01-16T05:18:02.495Z,5.15
2024-01-16T05:20:30.421Z,5.55
2024-01-16T05:22:58.542Z,5.03
2024-01-16T05:25:26.390Z,6.55
2024-01-16T05:27:53.243Z,5.68
2024-01-16T05:30:21.170Z,5.80
2024-01-16T05:32:49.222Z,6.38
2024-01-16T05:35:18.745Z,8.45
2024-01-16T05:37:46.737Z,5.53
2024-01-16T05:40:14.613Z,7.13
2024-01-16T05:42:42.471Z,5.15
2024-01-16T05:45:11.198Z,5.72
2024-01-16T05:47:39.137Z,7.00
2024-01-16T05:50:08.721Z,6.57
2024-01-16T05:52:39.335Z,7.55
2024-01-16T05:55:09.517Z,7.13
2024-01-16T05:57:38.388Z,5.90
2024-01-16T06:00:07.402Z,7.90
2024-01-16T06:02:35.306Z,5.45
2024-01-16T06:05:03.853Z,9.45
2024-01-16T06:07:31.880Z,6.75
2024-01-16T06:10:01.101Z,5.57
2024-01-16T06:12:28.941Z,6.78
2024-01-16T06:14:56.914Z,6.30
2024-01-16T06:17:24.831Z,6.18
2024-01-16T06:19:52.855Z,5.45
2024-01-16T06:22:20.769Z,8.35
2024-01-16T06:24:48.663Z,8.85
2024-01-16T06:27:20.317Z,7.35
2024-01-16T06:29:48.486Z,8.07
2024-01-16T06:32:16.609Z,7.15
2024-01-16T06:34:45.185Z,6.40
2024-01-16T06:37:13.057Z,9.60
2024-01-16T06:39:40.942Z,7.43
2024-01-16T06:42:11.238Z,7.30
2024-01-16T06:44:41.096Z,5.40
2024-01-16T06:47:08.977Z,5.57
2024-01-16T06:49:37.034Z,7.05
2024-01-16T06:52:05.397Z,8.48
2024-01-16T06:54:33.374Z,6.80
2024-01-16T06:57:01.230Z,6.75
2024-01-16T06:59:29.103Z,8.40
2024-01-16T07:01:58.298Z,7.90
2024-01-16T07:04:26.187Z,7.00
2024-01-16T07:06:54.090Z,6.35
2024-01-16T07:09:22.068Z,7.20
2024-01-16T07:11:50.200Z,7.22
2024-01-16T07:14:18.116Z,10.95
2024-01-16T07:16:45.999Z,9.23
2024-01-16T07:19:15.424Z,10.23
2024-01-16T07:21:43.357Z,9.05
2024-01-16T07:24:11.227Z,9.77
2024-01-16T07:26:39.171Z,14.82
2024-01-16T07:29:07.077Z,10.70
2024-01-16T07:31:34.916Z,10.73
2024-01-16T07:34:03.057Z,9.75
2024-01-16T07:36:32.600Z,11.25
2024-01-16T07:39:01.641Z,16.02
2024-01-16T07:41:29.602Z,11.80
2024-01-16T07:43:57.459Z,12.55
2024-01-16T07:46:25.433Z,13.20
2024-01-16T07:48:53.411Z,12.52
2024-01-16T07:51:21.310Z,12.32
2024-01-16T07:53:52.946Z,11.30
2024-01-16T07:56:20.882Z,14.25
2024-01-16T07:58:48.734Z,11.10
2024-01-16T08:01:17.416Z,11.80
2024-01-16T08:03:45.275Z,10.43
2024-01-16T08:06:13.256Z,15.55
2024-01-16T08:08:41.299Z,13.82
2024-01-16T08:11:10.588Z,13.98
2024-01-16T08:13:38.579Z,12.10
2024-01-16T08:16:09.374Z,12.13
2024-01-16T08:18:38.146Z,17.38
2024-01-16T08:21:06.974Z,14.65
2024-01-16T08:23:34.867Z,9.77
2024-01-16T08:26:02.798Z,13.60
2024-01-16T08:28:32.132Z,13.52
2024-01-16T08:31:00.618Z,11.57
2024-01-16T08:33:37.008Z,12.13
2024-01-16T08:36:10.967Z,11.85
2024-01-16T08:38:38.966Z,12.57
2024-01-16T08:41:07.801Z,12.85
2024-01-16T08:43:36.972Z,11.82
2024-01-16T08:46:05.300Z,9.98
2024-01-16T08:48:35.700Z,8.95
2024-01-16T08:51:05.819Z,12.52
2024-01-16T08:53:35.552Z,13.90
2024-01-16T08:56:03.640Z,14.98
2024-01-16T08:58:31.536Z,9.65
2024-01-16T09:01:00.810Z,11.48
2024-01-16T09:03:28.685Z,7.28
2024-01-16T09:05:56.748Z,9.43
2024-01-16T09:08:24.742Z,9.35
2024-01-16T09:10:52.634Z,11.05
2024-01-16T09:13:21.373Z,7.50
2024-01-16T09:15:50.472Z,12.57
2024-01-16T09:18:19.846Z,8.98
2024-01-16T09:20:48.659Z,10.02
2024-01-16T09:23:16.615Z,11.60
2024-01-16T09:25:47.016Z,10.50
2024-01-16T09:28:16.858Z,13.45
2024-01-16T09:30:44.993Z,5.97
2024-01-16T09:33:13.413Z,11.18
2024-01-16T09:35:43.141Z,8.90
2024-01-16T09:38:11.052Z,6.88
2024-01-16T09:40:38.920Z,7.63
2024-01-16T09:43:09.609Z,11.23
2024-01-16T09:45:40.328Z,8.85
2024-01-16T09:48:10.466Z,7.60
2024-01-16T09:50:38.963Z,7.20
2024-01-16T09:53:08.444Z,9.82
2024-01-16T09:55:36.335Z,8.02
2024-01-16T09:58:05.206Z,6.30
2024-01-16T10:00:33.385Z,7.00
2024-01-16T10:03:02.726Z,8.23
2024-01-16T10:05:32.724Z,9.90
2024-01-16T10:08:01.012Z,10.10
2024-01-16T10:10:38.672Z,7.13
2024-01-16T10:13:16.259Z,9.85
2024-01-16T10:15:44.635Z,7.82
2024-01-16T10:18:24.322Z,7.43
2024-01-16T10:20:53.901Z,9.63
2024-01-16T10:23:26.091Z,8.55
2024-01-16T10:26:12.180Z,5.78
2024-01-16T10:28:42.385Z,11.80
2024-01-16T10:31:13.242Z,12.38
2024-01-16T10:33:41.685Z,8.30
2024-01-16T10:36:12.189Z,9.35
2024-01-16T10:38:40.863Z,12.45
2024-01-16T10:41:14.698Z,8.32
2024-01-16T10:43:43.505Z,8.82
2024-01-16T10:46:13.325Z,10.43
2024-01-16T10:48:43.909Z,7.93
2024-01-16T10:51:13.364Z,7.22
2024-01-16T10:53:44.772Z,6.97
2024-01-16T11:01:14.102Z,12.35
2024-01-16T11:03:48.736Z,9.82
2024-01-16T11:06:18.110Z,8.13
2024-01-16T11:08:48.586Z,8.35
2024-01-16T11:11:19.027Z,6.32
2024-01-16T11:13:48.596Z,6.88
2024-01-16T11:16:16.614Z,8.50
2024-01-16T11:18:44.838Z,6.55
2024-01-16T11:21:17.644Z,8.23
2024-01-16T11:23:48.438Z,7.68
2024-01-16T11:26:33.954Z,8.38
2024-01-16T11:29:03.537Z,5.75
2024-01-16T11:31:33.024Z,6.93
2024-01-16T11:34:02.096Z,6.78
2024-01-16T11:36:55.789Z,7.80
2024-01-16T11:39:26.100Z,6.18
2024-01-16T11:42:00.061Z,7.60
2024-01-16T11:44:39.649Z,8.15
2024-01-16T11:47:08.657Z,3.40
2024-01-16T11:49:36.860Z,7.63
2024-01-16T11:52:05.189Z,3.00
2024-01-16T11:54:33.044Z,5.63
2024-01-16T11:57:55.350Z,8.60
2024-01-16T12:00:23.479Z,7.53
2024-01-16T12:02:54.040Z,3.80
2024-01-16T12:05:22.730Z,10.43
2024-01-16T12:07:52.096Z,7.57
2024-01-16T12:10:21.303Z,7.10
2024-01-16T12:12:52.171Z,4.95
2024-01-16T12:15:21.293Z,5.85
2024-01-16T12:18:00.116Z,7.70
2024-01-16T12:20:30.130Z,6.43
2024-01-16T12:23:00.176Z,5.00
2024-01-16T12:25:59.733Z,7.82
2024-01-16T12:28:31.220Z,6.13
2024-01-16T12:31:01.966Z,6.35
2024-01-16T12:33:31.584Z,6.70
2024-01-16T12:36:05.221Z,6.38
2024-01-16T12:38:34.046Z,5.95
2024-01-16T12:41:04.180Z,6.38
2024-01-16T12:43:34.367Z,6.55
2024-01-16T12:46:02.828Z,6.63
2024-01-16T12:48:31.428Z,6.93
2024-01-16T12:51:03.959Z,6.82
2024-01-16T12:53:34.920Z,7.35
2024-01-16T12:56:04.542Z,6.63
2024-01-16T12:58:36.638Z,7.93
2024-01-16T13:01:35.153Z,6.00
2024-01-16T13:04:07.945Z,7.75
2024-01-16T13:06:36.889Z,7.18
2024-01-16T13:09:12.392Z,8.80
2024-01-16T13:11:51.049Z,7.15
2024-01-16T13:14:22.050Z,6.97
2024-01-16T13:16:50.462Z,7.97
2024-01-16T13:19:19.758Z,6.38
2024-01-16T13:21:48.248Z,10.88
2024-01-16T13:24:16.157Z,8.85
2024-01-16T13:26:44.555Z,10.48
2024-01-16T13:29:12.665Z,5.88
2024-01-16T13:31:41.969Z,8.55
2024-01-16T13:34:10.073Z,9.10
2024-01-16T13:39:14.213Z,8.57
2024-01-16T13:41:42.661Z,9.73
2024-01-16T13:44:10.508Z,7.80
2024-01-16T13:49:11.154Z,7.45
2024-01-16T13:51:39.101Z,6.20
2024-01-16T13:54:07.086Z,7.63
2024-01-16T13:56:51.303Z,7.38
2024-01-16T13:59:22.750Z,9.52
2024-01-16T14:01:50.660Z,9.98
2024-01-16T14:04:19.909Z,9.90
2024-01-16T14:07:02.880Z,7.30
2024-01-16T14:09:36.822Z,8.50
2024-01-16T14:12:05.290Z,8.27
2024-01-16T14:14:33.172Z,8.55
2024-01-16T14:17:02.180Z,6.32
2024-01-16T14:19:32.376Z,6.85
2024-01-16T14:22:00.400Z,5.90
2024-01-16T14:24:28.332Z,8.07
2024-01-16T14:26:57.766Z,6.60
2024-01-16T14:29:26.002Z,7.43
2024-01-16T14:31:53.877Z,7.90
2024-01-16T14:34:21.838Z,9.13
2024-01-16T14:36:52.642Z,7.22
2024-01-16T14:39:25.953Z,8.48
2024-01-16T14:41:54.505Z,6.05
2024-01-16T14:44:22.566Z,8.13
2024-01-16T14:46:53.155Z,8.13
2024-01-16T14:49:22.141Z,5.90
2024-01-16T14:51:52.446Z,11.00
2024-01-16T14:54:20.594Z,8.52
2024-01-16T14:56:49.091Z,7.93
2024-01-16T14:59:17.130Z,6.43
2024-01-16T15:01:46.164Z,7.57
2024-01-16T15:04:14.383Z,6.80
2024-01-16T15:06:42.576Z,7.70
2024-01-16T15:09:13.875Z,9.05
2024-01-16T15:11:43.145Z,7.25
2024-01-16T15:14:13.718Z,6.75
2024-01-16T15:16:41.693Z,7.50
2024-01-16T15:19:09.693Z,10.18
2024-01-16T15:21:40.417Z,8.50
2024-01-16T15:24:08.519Z,10.43
2024-01-16T15:26:37.861Z,7.55
2024-01-16T15:29:07.499Z,7.55
2024-01-16T15:31:35.391Z,9.90
2024-01-16T15:34:03.341Z,6.65
2024-01-16T15:36:31.233Z,9.27
2024-01-16T15:38:59.196Z,8.27
2024-01-16T15:41:27.106Z,9.55
2024-01-16T15:43:58.008Z,8.80
2024-01-16T15:46:26.446Z,7.82
2024-01-16T15:48:57.386Z,7.85
2024-01-16T15:51:25.610Z,9.63
2024-01-16T15:53:53.538Z,7.10
2024-01-16T15:56:21.415Z,12.80
2024-01-16T15:58:49.296Z,9.98
2024-01-16T16:01:18.505Z,8.05
2024-01-16T16:03:46.388Z,9.43
2024-01-16T16:06:14.440Z,7.60
2024-01-16T16:08:42.761Z,8.45
2024-01-16T16:11:10.619Z,8.05
2024-01-16T16:13:38.552Z,8.02
2024-01-16T16:16:06.938Z,9.80
2024-01-16T16:18:38.658Z,7.00
2024-01-16T16:21:06.740Z,8.10
2024-01-16T16:23:34.566Z,7.10
2024-01-16T16:26:02.463Z,9.55
2024-01-16T16:28:30.277Z,8.93
2024-01-16T16:30:58.172Z,7.65
2024-01-16T16:33:26.173Z,8.27
2024-01-16T16:35:55.530Z,10.40
2024-01-16T16:38:23.606Z,7.13
2024-01-16T16:40:51.484Z,7.20
2024-01-16T16:43:19.356Z,4.82
2024-01-16T16:45:47.286Z,9.85
2024-01-16T16:48:15.542Z,7.88
2024-01-16T16:50:44.173Z,11.48
2024-01-16T16:53:13.407Z,6.68
2024-01-16T16:55:41.290Z,10.70
2024-01-16T16:58:10.341Z,9.98
2024-01-16T17:00:40.537Z,10.75
2024-01-16T17:03:08.922Z,8.20
2024-01-16T17:05:37.138Z,5.07
2024-01-16T17:08:05.698Z,8.68
2024-01-16T17:10:34.890Z,8.38
2024-01-16T17:13:03.658Z,10.02
2024-01-16T17:15:31.732Z,13.13
2024-01-16T17:17:59.647Z,9.40
2024-01-16T17:20:27.731Z,8.57
2024-01-16T17:22:55.559Z,10.63
2024-01-16T17:25:23.548Z,10.65
2024-01-16T17:27:52.802Z,10.75
2024-01-16T17:30:20.762Z,9.63
2024-01-16T17:32:48.714Z,8.48
2024-01-16T17:35:17.785Z,8.38
2024-01-16T17:37:45.926Z,13.10
2024-01-16T17:40:18.997Z,9.50
2024-01-16T17:42:48.577Z,7.72
2024-01-16T17:45:18.095Z,9.48
2024-01-16T17:47:46.106Z,11.95
2024-01-16T17:50:14.099Z,11.20
2024-01-16T17:52:42.020Z,11.07
2024-01-16T17:55:10.821Z,10.13
2024-01-16T17:57:38.713Z,7.43
2024-01-16T18:00:10.040Z,10.27
2024-01-16T18:02:40.392Z,6.97
2024-01-16T18:05:11.412Z,9.75
2024-01-16T18:07:39.633Z,10.82
2024-01-16T18:10:10.111Z,7.50
2024-01-16T18:12:39.064Z,9.95
2024-01-16T18:15:09.786Z,8.55
2024-01-16T18:17:39.160Z,11.38
2024-01-16T18:20:11.194Z,10.88
2024-01-16T18:22:39.380Z,11.98
2024-01-16T18:25:09.794Z,8.68
2024-01-16T18:27:38.450Z,8.27
2024-01-16T18:30:07.876Z,8.60
2024-01-16T18:32:36.014Z,10.85
2024-01-16T18:35:06.640Z,11.85
2024-01-16T18:37:34.533Z,8.20
2024-01-16T18:40:02.777Z,9.40
2024-01-16T18:42:30.678Z,9.57
2024-01-16T18:44:58.823Z,11.20
2024-01-16T18:47:27.469Z,12.45
2024-01-16T18:49:55.432Z,11.35
2024-01-16T18:52:25.129Z,11.77
2024-01-16T18:54:53.042Z,10.80
2024-01-16T18:57:23.799Z,9.48
2024-01-16T18:59:51.686Z,7.47
2024-01-16T19:02:22.370Z,10.00
2024-01-16T19:04:50.699Z,10.68
2024-01-16T19:07:18.781Z,7.97
2024-01-16T19:09:48.038Z,9.23
2024-01-16T19:12:15.894Z,8.60
2024-01-16T19:14:46.208Z,14.35
2024-01-16T19:17:16.678Z,7.40
2024-01-16T19:19:44.537Z,18.60
2024-01-16T19:22:12.375Z,9.63
2024-01-16T19:24:40.197Z,10.70
2024-01-16T19:27:09.504Z,9.27
2024-01-16T19:29:37.437Z,10.27
2024-01-16T19:32:06.586Z,12.88
2024-01-16T19:34:34.546Z,11.60
2024-01-16T19:37:02.707Z,14.60
2024-01-16T19:39:33.815Z,10.38
2024-01-16T19:42:01.871Z,5.53
2024-01-16T19:44:31.275Z,15.25
2024-01-16T19:46:59.210Z,11.18
2024-01-16T19:49:27.801Z,9.90
2024-01-16T19:51:54.699Z,6.95
2024-01-16T19:54:22.630Z,11.55
2024-01-16T19:56:50.545Z,7.57
2024-01-16T19:59:18.548Z,10.55
2024-01-16T20:01:47.796Z,11.60
2024-01-16T20:04:15.844Z,9.90
2024-01-16T20:09:17.277Z,11.07
2024-01-16T20:11:46.263Z,9.85
2024-01-16T20:14:14.208Z,12.23
2024-01-16T20:16:42.143Z,13.40
2024-01-16T20:19:11.557Z,9.20
2024-01-16T20:21:39.741Z,13.57
2024-01-16T20:24:08.226Z,11.93
2024-01-16T20:26:37.565Z,7.93
2024-01-16T20:29:06.239Z,16.10
2024-01-16T20:31:34.800Z,11.95
2024-01-16T20:34:03.033Z,11.45
2024-01-16T20:36:32.323Z,12.77
2024-01-16T20:39:00.267Z,7.03
2024-01-16T20:41:28.216Z,12.07
2024-01-16T20:43:56.149Z,11.15
2024-01-16T20:46:24.293Z,14.20
2024-01-16T20:48:52.376Z,11.40
2024-01-16T20:51:20.271Z,12.32
2024-01-16T20:53:49.594Z,9.70
2024-01-16T20:56:19.287Z,11.10
2024-01-16T20:58:48.659Z,10.40
2024-01-16T21:01:16.531Z,11.38
2024-01-16T21:03:47.750Z,12.10
2024-01-16T21:06:15.927Z,12.23
2024-01-16T21:08:43.930Z,13.02
2024-01-16T21:11:13.213Z,12.45
2024-01-16T21:13:41.326Z,10.02
2024-01-16T21:16:12.833Z,9.05
2024-01-16T21:21:10.886Z,8.45
2024-01-16T21:23:53.223Z,10.57
2024-01-16T21:26:23.151Z,13.32
2024-01-16T21:28:51.053Z,10.05
2024-01-16T21:31:18.872Z,12.60
2024-01-16T21:33:46.802Z,10.30
2024-01-16T21:36:15.044Z,12.52
2024-01-16T21:38:42.927Z,14.55
2024-01-16T21:41:13.399Z,14.68
2024-01-16T21:43:43.724Z,9.02
2024-01-16T21:46:11.894Z,13.80
2024-01-16T21:48:39.964Z,9.75
2024-01-16T21:51:09.109Z,11.85
2024-01-16T21:53:37.821Z,13.20
2024-01-16T21:56:06.911Z,13.50
2024-01-16T21:58:34.764Z,14.90
2024-01-16T22:01:04.468Z,12.23
2024-01-16T22:03:32.334Z,13.02
2024-01-16T22:06:00.409Z,13.88
2024-01-16T22:08:30.914Z,10.50
2024-01-16T22:10:58.852Z,12.02
2024-01-16T22:13:26.697Z,13.35
2024-01-16T22:15:54.555Z,15.25
2024-01-16T22:18:23.845Z,13.25
2024-01-16T22:20:51.787Z,14.30
2024-01-16T22:23:19.677Z,15.00
2024-01-16T22:25:47.628Z,14.13
2024-01-16T22:28:15.590Z,13.48
2024-01-16T22:30:43.481Z,15.18
2024-01-16T22:33:12.341Z,17.40
2024-01-16T22:35:41.707Z,15.82
2024-01-16T22:38:09.610Z,13.23
2024-01-16T22:40:37.716Z,13.05
2024-01-16T22:43:06.443Z,14.50
2024-01-16T22:45:34.428Z,14.60
2024-01-16T22:48:06.303Z,17.05
2024-01-16T22:50:34.316Z,15.77
2024-01-16T22:53:03.733Z,15.77
2024-01-16T22:55:31.590Z,15.50
2024-01-16T22:57:59.425Z,12.70
2024-01-16T23:00:30.187Z,16.38
2024-01-16T23:02:58.534Z,14.90
2024-01-16T23:05:28.634Z,15.15
2024-01-16T23:07:57.994Z,14.77
2024-01-16T23:10:27.747Z,14.63
2024-01-16T23:12:55.679Z,11.13
2024-01-16T23:15:23.588Z,16.38
2024-01-16T23:17:51.512Z,16.45
2024-01-16T23:20:20.965Z,14.27
2024-01-16T23:22:48.952Z,14.63
2024-01-16T23:25:17.262Z,15.93
2024-01-16T23:27:50.282Z,13.45
2024-01-16T23:30:19.030Z,14.82
2024-01-16T23:32:47.180Z,15.93
2024-01-16T23:35:15.128Z,9.55
2024-01-16T23:37:45.067Z,13.27
2024-01-16T23:40:16.133Z,14.07
2024-01-16T23:42:46.192Z,20.98
2024-01-16T23:45:23.725Z,19.90
2024-01-16T23:47:56.463Z,16.00
2024-01-16T23:50:24.581Z,16.02
2024-01-16T23:52:52.441Z,13.23
2024-01-16T23:55:20.320Z,18.08
2024-01-16T23:57:49.553Z,15.85
